Time;durP1;ratioP1;P1;durP2;ratioP2;P2;SDS_P1;SDS_P2;PMS_P1;PMS_P2;Temp;Humidity;BMP_temperature;BMP_pressure;BME280_temperature;BME280_humidity;BME280_pressure;Samples;Min_cycle;Max_cycle;Signal;HPM_P1;HPM_P2
2021/11/24 00:00:49;;;;;;;8.77;3.25;;;;;;;7.11;95.76;102450.97;4990997;28;20085;-90
2021/11/24 00:03:17;;;;;;;6.40;2.80;;;;;;;7.18;95.43;102438.56;4988679;28;20138;-90
2021/11/24 00:05:43;;;;;;;8.77;2.78;;;;;;;7.16;95.17;102443.25;4987093;28;20576;-91
2021/11/24 00:08:09;;;;;;;7.15;3.70;;;;;;;7.14;95.29;102439.94;4988753;28;20046;-90
2021/11/24 00:10:35;;;;;;;6.13;3.35;;;;;;;7.21;95.17;102432.88;4989148;28;20040;-89
2021/11/24 00:13:04;;;;;;;8.07;3.40;;;;;;;6.99;95.79;102447.91;4987694;28;20023;-89
2021/11/24 00:15:31;;;;;;;10.02;3.75;;;;;;;7.10;96.01;102428.00;4989054;28;20029;-90
2021/11/24 00:17:56;;;;;;;6.43;3.40;;;;;;;7.08;96.19;102438.00;4989477;28;20560;-89
2021/11/24 00:20:22;;;;;;;9.25;3.60;;;;;;;6.97;96.23;102440.13;4986699;28;20102;-89
2021/11/24 00:22:50;;;;;;;7.07;3.72;;;;;;;7.00;96.87;102424.75;4987955;28;20030;-89
2021/11/24 00:25:19;;;;;;;5.93;3.80;;;;;;;7.00;96.85;102440.75;4988382;28;20026;-89
2021/11/24 00:27:53;;;;;;;9.25;3.70;;;;;;;7.03;97.09;102429.75;4987660;28;20065;-89
2021/11/24 00:30:19;;;;;;;6.93;3.42;;;;;;;7.00;96.80;102451.41;4987245;28;20022;-90
2021/11/24 00:32:45;;;;;;;10.95;3.55;;;;;;;7.02;96.99;102438.75;4987124;28;20036;-89
2021/11/24 00:35:13;;;;;;;9.32;3.38;;;;;;;6.88;96.76;102443.88;4985905;28;20056;-90
2021/11/24 00:37:39;;;;;;;8.70;3.38;;;;;;;6.90;97.26;102441.88;4986083;28;20034;-90
2021/11/24 00:40:06;;;;;;;7.38;3.70;;;;;;;6.86;97.17;102435.25;4986045;28;20027;-90
2021/11/24 00:42:37;;;;;;;6.75;3.22;;;;;;;6.83;97.28;102446.28;5000925;28;20027;-90
2021/11/24 00:45:03;;;;;;;8.98;4.10;;;;;;;6.85;97.58;102438.94;4989810;28;20022;-89
2021/11/24 00:47:29;;;;;;;9.07;3.80;;;;;;;6.92;97.33;102439.00;4993597;28;20097;-89
2021/11/24 00:49:55;;;;;;;10.75;3.28;;;;;;;6.91;97.06;102424.88;5001612;28;20097;-89
2021/11/24 00:52:24;;;;;;;9.40;3.75;;;;;;;6.89;97.28;102428.72;4990492;28;20032;-89
2021/11/24 00:54:49;;;;;;;4.65;2.92;;;;;;;6.96;96.72;102425.13;4990825;28;20031;-89
2021/11/24 00:57:18;;;;;;;9.40;2.90;;;;;;;6.95;96.37;102422.66;4989937;28;20412;-89
2021/11/24 00:59:57;;;;;;;7.03;2.80;;;;;;;6.96;95.70;102417.13;4993140;28;20113;-89
2021/11/24 01:02:28;;;;;;;7.10;3.00;;;;;;;6.96;95.73;102416.31;4989785;28;20054;-89
2021/11/24 01:04:54;;;;;;;3.95;2.38;;;;;;;7.04;95.29;102418.09;4988429;28;20041;-89
2021/11/24 01:07:22;;;;;;;6.72;2.92;;;;;;;7.00;95.04;102419.44;4990905;28;20606;-91
2021/11/24 01:09:51;;;;;;;5.68;2.53;;;;;;;7.06;94.69;102424.06;4984651;28;20038;-90
2021/11/24 01:12:19;;;;;;;4.82;1.95;;;;;;;7.10;94.81;102430.66;4989727;28;20477;-90
2021/11/24 01:14:45;;;;;;;5.75;2.08;;;;;;;7.07;94.54;102425.69;4991265;28;20038;-89
2021/11/24 01:17:13;;;;;;;12.82;3.05;;;;;;;7.10;94.05;102420.81;4990396;28;20034;-89
2021/11/24 01:19:39;;;;;;;10.77;2.60;;;;;;;7.01;94.53;102415.78;4988665;28;20022;-90
2021/11/24 01:22:08;;;;;;;4.95;2.60;;;;;;;6.97;94.89;102420.63;4986601;28;20480;-90
2021/11/24 01:24:34;;;;;;;8.93;2.50;;;;;;;6.97;95.24;102416.13;4990660;28;20033;-90
2021/11/24 01:27:04;;;;;;;6.03;2.83;;;;;;;6.96;95.48;102417.13;4991526;28;20070;-90
2021/11/24 01:29:30;;;;;;;3.67;2.40;;;;;;;6.99;95.26;102426.59;4990679;28;20041;-89
2021/11/24 01:32:00;;;;;;;6.65;2.30;;;;;;;6.91;95.44;102416.03;4991693;28;20030;-90
2021/11/24 01:34:26;;;;;;;6.25;2.65;;;;;;;6.93;95.53;102414.84;4991608;28;20113;-90
2021/11/24 01:36:51;;;;;;;5.25;2.63;;;;;;;6.92;95.60;102437.19;4988601;28;20201;-89
2021/11/24 01:39:17;;;;;;;5.30;2.55;;;;;;;6.90;95.75;102428.53;4993748;28;20127;-90
2021/11/24 01:41:43;;;;;;;6.07;2.47;;;;;;;6.94;96.24;102416.50;4989225;28;20045;-89
2021/11/24 01:44:23;;;;;;;3.88;2.55;;;;;;;6.79;96.83;102422.81;4991237;28;20061;-89
2021/11/24 01:47:00;;;;;;;5.15;2.88;;;;;;;6.83;96.38;102401.00;4991255;28;20031;-90
2021/11/24 01:49:27;;;;;;;5.65;2.67;;;;;;;6.79;97.24;102406.84;4990167;28;20038;-90
2021/11/24 01:51:53;;;;;;;7.85;2.55;;;;;;;6.87;96.90;102410.25;4988864;28;20053;-90
2021/11/24 01:54:19;;;;;;;5.03;2.10;;;;;;;6.85;96.73;102406.94;4990399;28;20122;-90
2021/11/24 01:56:46;;;;;;;3.63;1.80;;;;;;;6.90;95.94;102407.22;4990131;28;20100;-89
2021/11/24 01:59:12;;;;;;;6.30;2.10;;;;;;;6.80;95.48;102401.31;4988673;28;20031;-90
2021/11/24 02:01:43;;;;;;;4.68;2.30;;;;;;;6.87;95.50;102396.13;4990099;28;20030;-90
2021/11/24 02:04:13;;;;;;;3.67;1.75;;;;;;;6.90;94.81;102395.75;4990550;28;20030;-90
2021/11/24 02:06:38;;;;;;;4.30;1.90;;;;;;;6.94;94.09;102405.84;4987236;28;20027;-90
2021/11/24 02:09:05;;;;;;;3.53;1.90;;;;;;;7.00;94.67;102392.78;4988088;28;20030;-89
2021/11/24 02:11:35;;;;;;;4.35;2.10;;;;;;;7.00;93.98;102393.59;4984064;28;20061;-90
2021/11/24 02:14:01;;;;;;;3.88;1.85;;;;;;;7.04;94.00;102394.91;4984797;28;20052;-90
2021/11/24 02:16:26;;;;;;;5.43;1.85;;;;;;;7.02;93.53;102388.13;4984307;28;20033;-90
2021/11/24 02:18:52;;;;;;;6.53;2.05;;;;;;;7.03;93.97;102387.13;4986756;28;20492;-90
2021/11/24 02:21:19;;;;;;;4.53;1.70;;;;;;;7.01;93.97;102381.97;4988236;28;20033;-89
2021/11/24 02:23:45;;;;;;;4.13;1.42;;;;;;;6.90;93.93;102391.25;4990045;28;20034;-88
2021/11/24 02:26:12;;;;;;;5.53;1.90;;;;;;;6.97;94.42;102381.47;4990141;28;20072;-89
2021/11/24 02:28:40;;;;;;;6.28;2.28;;;;;;;6.92;94.22;102386.53;4989626;28;20019;-89
2021/11/24 02:31:06;;;;;;;2.47;1.70;;;;;;;7.00;93.98;102390.13;4991241;28;20034;-88
2021/11/24 02:33:35;;;;;;;6.60;2.22;;;;;;;6.88;94.62;102379.13;4997141;28;20088;-89
2021/11/24 02:36:00;;;;;;;3.45;1.65;;;;;;;6.96;94.48;102371.84;4998714;28;20473;-89
2021/11/24 02:38:26;;;;;;;4.68;1.85;;;;;;;6.98;94.18;102377.81;4999085;28;20032;-90
2021/11/24 02:40:51;;;;;;;1.92;1.60;;;;;;;6.95;94.32;102380.84;5010844;28;20205;-89
2021/11/24 02:43:17;;;;;;;4.20;2.00;;;;;;;7.04;94.09;102375.44;5002663;28;20061;-89
2021/11/24 02:45:43;;;;;;;4.22;2.13;;;;;;;6.98;94.04;102376.97;5000403;28;20044;-88
2021/11/24 02:48:08;;;;;;;3.92;1.75;;;;;;;6.92;93.68;102375.06;4998137;28;20032;-88
2021/11/24 02:50:34;;;;;;;2.53;1.50;;;;;;;6.95;93.86;102382.69;4998881;28;20026;-88
2021/11/24 02:53:00;;;;;;;5.70;2.15;;;;;;;6.94;94.21;102379.19;4997149;28;20067;-89
2021/11/24 02:55:25;;;;;;;9.13;2.25;;;;;;;6.91;94.24;102379.56;4998433;28;20042;-88
2021/11/24 02:57:52;;;;;;;4.78;1.70;;;;;;;7.02;94.28;102377.47;5000816;28;20030;-88
2021/11/24 03:00:29;;;;;;;7.38;1.85;;;;;;;6.98;93.99;102376.97;5000019;28;20046;-88
2021/11/24 03:02:55;;;;;;;5.65;2.20;;;;;;;7.03;93.95;102366.63;4995506;28;20042;-89
2021/11/24 03:05:25;;;;;;;2.33;1.40;;;;;;;7.03;94.35;102371.13;5008667;28;20547;-89
2021/11/24 03:07:51;;;;;;;8.60;1.90;;;;;;;6.99;94.21;102365.31;4998523;28;20065;-90
2021/11/24 03:10:18;;;;;;;4.47;1.80;;;;;;;7.04;93.84;102367.44;5001036;28;20026;-90
2021/11/24 03:12:43;;;;;;;6.97;2.00;;;;;;;6.95;94.72;102359.53;4998094;28;20388;-89
2021/11/24 03:15:10;;;;;;;4.18;2.20;;;;;;;6.82;95.14;102354.03;4991592;28;20030;-89
2021/11/24 03:17:37;;;;;;;5.18;1.88;;;;;;;6.90;95.08;102361.09;4992101;28;20034;-89
2021/11/24 03:20:07;;;;;;;7.82;2.13;;;;;;;6.89;94.90;102349.63;4993067;28;20599;-89
2021/11/24 03:22:35;;;;;;;4.47;2.25;;;;;;;6.90;94.90;102351.28;4992186;28;20035;-89
2021/11/24 03:25:31;;;;;;;4.57;1.83;;;;;;;6.92;94.38;102354.56;4993261;28;20022;-90
2021/11/24 03:27:56;;;;;;;;;;;;;;;6.81;94.81;102352.34;4988691;28;20026;-88
2021/11/24 03:30:25;;;;;;;5.72;2.17;;;;;;;6.90;94.90;102350.44;4986058;28;19960;-89
2021/11/24 03:32:52;;;;;;;7.90;1.70;;;;;;;6.92;94.49;102354.56;4992548;28;20384;-88
2021/11/24 03:35:21;;;;;;;4.78;2.03;;;;;;;6.90;94.52;102348.59;4991557;28;20377;-88
2021/11/24 03:37:50;;;;;;;6.53;2.08;;;;;;;6.94;94.00;102351.72;4992478;28;20026;-89
2021/11/24 03:40:16;;;;;;;2.47;1.63;;;;;;;6.97;93.64;102346.84;4992375;28;20469;-89
2021/11/24 03:42:45;;;;;;;4.55;1.67;;;;;;;6.95;93.71;102351.53;4991305;28;20053;-89
2021/11/24 03:45:12;;;;;;;5.45;1.77;;;;;;;6.94;93.31;102343.72;4989433;28;20034;-89
2021/11/24 03:47:42;;;;;;;2.88;1.80;;;;;;;6.94;93.63;102351.72;4989724;28;20568;-89
2021/11/24 03:50:09;;;;;;;5.40;1.55;;;;;;;6.92;93.46;102346.56;4990238;28;20026;-89
2021/11/24 03:52:38;;;;;;;4.60;1.70;;;;;;;6.95;93.18;102343.53;4983206;28;20087;-87
2021/11/24 03:55:10;;;;;;;2.80;1.50;;;;;;;6.91;92.92;102341.44;4987877;28;20022;-89
2021/11/24 03:57:36;;;;;;;6.32;1.63;;;;;;;6.96;93.38;102337.19;4988031;28;20030;-89
2021/11/24 04:00:04;;;;;;;4.57;1.52;;;;;;;6.92;93.50;102335.91;4989902;28;20056;-88
2021/11/24 04:02:30;;;;;;;6.00;1.80;;;;;;;6.96;93.49;102329.19;4989075;28;20026;-88
2021/11/24 04:04:59;;;;;;;3.35;1.83;;;;;;;6.96;92.85;102326.53;4987788;28;20117;-88
2021/11/24 04:07:25;;;;;;;4.65;1.45;;;;;;;6.88;93.31;102331.97;4988834;28;20031;-88
2021/11/24 04:09:53;;;;;;;1.50;1.23;;;;;;;6.86;93.60;102330.53;4989521;28;20104;-89
2021/11/24 04:12:21;;;;;;;6.40;1.80;;;;;;;6.97;93.35;102325.53;4988719;28;20026;-88
2021/11/24 04:14:46;;;;;;;3.55;2.00;;;;;;;6.85;94.02;102324.38;4988783;28;20065;-88
2021/11/24 04:17:13;;;;;;;4.93;1.95;;;;;;;6.98;94.07;102321.03;4983914;28;20480;-87
2021/11/24 04:19:41;;;;;;;3.85;1.85;;;;;;;6.97;93.72;102320.19;4985981;28;20557;-88
2021/11/24 04:22:07;;;;;;;3.50;1.70;;;;;;;6.86;93.79;102331.34;4989062;28;20034;-88
2021/11/24 04:24:34;;;;;;;8.07;2.20;;;;;;;6.97;93.47;102333.50;4981263;28;20034;-88
2021/11/24 04:27:01;;;;;;;5.53;1.73;;;;;;;6.92;93.63;102325.25;4987421;28;20034;-88
2021/11/24 04:29:27;;;;;;;4.47;1.98;;;;;;;6.90;94.02;102329.94;4989544;28;20842;-88
2021/11/24 04:31:53;;;;;;;4.55;1.83;;;;;;;6.90;94.81;102334.47;4995943;28;20049;-87
2021/11/24 04:34:19;;;;;;;4.82;1.95;;;;;;;6.83;95.02;102328.22;4988527;28;20030;-88
2021/11/24 04:36:44;;;;;;;4.88;1.70;;;;;;;6.81;95.23;102338.22;4984092;28;20044;-89
2021/11/24 04:39:10;;;;;;;5.70;2.30;;;;;;;6.78;95.18;102339.41;4985421;28;20481;-89
2021/11/24 04:41:38;;;;;;;2.70;1.95;;;;;;;6.76;95.84;102327.28;4987344;28;20472;-89
2021/11/24 04:44:08;;;;;;;3.13;2.33;;;;;;;6.71;95.87;102325.19;4988433;28;20048;-89
2021/11/24 04:46:37;;;;;;;4.05;2.03;;;;;;;6.78;95.96;102323.44;4988638;28;20977;-89
2021/11/24 04:49:02;;;;;;;3.65;2.20;;;;;;;6.81;95.63;102320.38;4986584;28;20050;-89
2021/11/24 04:51:31;;;;;;;2.58;2.13;;;;;;;6.81;95.96;102324.91;4994170;28;20033;-89
2021/11/24 04:54:04;;;;;;;4.65;2.40;;;;;;;6.89;96.07;102328.31;4988963;28;20042;-89
2021/11/24 04:56:33;;;;;;;7.13;2.92;;;;;;;6.89;95.62;102325.63;4987876;28;20037;-88
2021/11/24 04:59:01;;;;;;;6.28;2.42;;;;;;;6.89;95.47;102327.47;4988656;28;20030;-89
2021/11/24 05:01:26;;;;;;;3.72;2.22;;;;;;;6.85;95.85;102323.53;4983864;28;20444;-88
2021/11/24 05:03:52;;;;;;;6.80;2.58;;;;;;;6.82;95.80;102337.19;4987778;28;20030;-89
2021/11/24 05:06:27;;;;;;;3.38;2.75;;;;;;;6.84;96.31;102329.88;4987163;28;20042;-89
2021/11/24 05:08:56;;;;;;;3.72;2.80;;;;;;;6.84;96.52;102329.88;4986539;28;20019;-88
2021/11/24 05:11:22;;;;;;;4.97;3.05;;;;;;;6.74;96.32;102329.31;4985404;28;20038;-89
2021/11/24 05:13:55;;;;;;;5.20;2.83;;;;;;;6.80;97.18;102323.25;4985689;28;20049;-89
2021/11/24 05:16:22;;;;;;;3.97;2.78;;;;;;;6.82;96.70;102326.53;4983909;28;20048;-88
2021/11/24 05:18:51;;;;;;;4.38;2.30;;;;;;;6.82;96.74;102332.72;4987849;28;20038;-89
2021/11/24 05:21:26;;;;;;;4.35;3.20;;;;;;;6.85;96.27;102326.19;4983016;28;20424;-88
2021/11/24 05:23:52;;;;;;;7.72;2.95;;;;;;;6.80;96.65;102328.56;4986734;28;20038;-88
2021/11/24 05:26:19;;;;;;;3.83;2.42;;;;;;;6.81;97.10;102331.03;4987975;28;20022;-88
2021/11/24 05:28:46;;;;;;;4.90;3.00;;;;;;;6.74;97.60;102324.00;4987844;28;20058;-88
2021/11/24 05:31:15;;;;;;;9.45;3.47;;;;;;;6.68;97.60;102328.22;4988638;28;20405;-88
2021/11/24 05:33:43;;;;;;;4.80;2.90;;;;;;;6.72;97.93;102326.84;4988255;28;20026;-88
2021/11/24 05:36:09;;;;;;;5.60;3.10;;;;;;;6.73;97.42;102328.50;4991165;28;20571;-86
2021/11/24 05:38:38;;;;;;;6.88;3.80;;;;;;;6.74;97.63;102330.16;4988782;28;20084;-88
2021/11/24 05:41:06;;;;;;;7.55;3.45;;;;;;;6.77;97.48;102345.75;4991537;28;20046;-90
2021/11/24 05:43:32;;;;;;;5.63;3.47;;;;;;;6.71;97.33;102330.50;4989888;28;20026;-88
2021/11/24 05:48:30;;;;;;;7.40;3.83;;;;;;;6.53;97.01;102322.06;4990138;28;20130;-89
2021/11/24 05:50:55;;;;;;;7.72;3.58;;;;;;;6.59;97.56;102316.00;4992565;28;20101;-88
2021/11/24 05:53:21;;;;;;;5.68;3.25;;;;;;;6.57;97.63;102328.66;4991886;28;20018;-88
2021/11/24 05:55:48;;;;;;;7.68;3.47;;;;;;;6.55;97.83;102328.03;4994149;28;20034;-88
2021/11/24 05:58:18;;;;;;;7.57;3.70;;;;;;;6.60;98.15;102329.13;4991586;28;20185;-88
2021/11/24 06:00:50;;;;;;;6.43;3.95;;;;;;;6.52;98.35;102329.22;4992827;28;20030;-89
2021/11/24 06:03:16;;;;;;;8.63;4.18;;;;;;;6.60;97.90;102328.28;4990123;28;20439;-88
2021/11/24 06:05:42;;;;;;;6.57;4.30;;;;;;;6.57;98.07;102323.34;4986232;28;20058;-88
2021/11/24 06:08:10;;;;;;;8.43;4.53;;;;;;;6.53;98.24;102325.56;4991764;28;20531;-88
2021/11/24 06:10:35;;;;;;;9.30;4.10;;;;;;;6.52;98.82;102325.72;4987957;28;20018;-89
2021/11/24 06:13:03;;;;;;;6.88;3.95;;;;;;;6.57;98.19;102318.00;4992975;28;20014;-89
2021/11/24 06:15:29;;;;;;;7.70;4.40;;;;;;;6.55;98.02;102325.38;4988629;28;20491;-88
2021/11/24 06:17:56;;;;;;;8.00;4.43;;;;;;;6.44;98.44;102333.78;4990408;28;20030;-88
2021/11/24 06:20:23;;;;;;;7.00;4.28;;;;;;;6.49;98.55;102328.78;4994302;28;20026;-88
2021/11/24 06:22:49;;;;;;;8.30;4.95;;;;;;;6.60;98.27;102330.97;4996077;28;20400;-89
2021/11/24 06:25:15;;;;;;;6.95;3.80;;;;;;;6.61;98.05;102320.13;4987020;28;20034;-88
2021/11/24 06:27:42;;;;;;;6.43;3.47;;;;;;;6.64;98.34;102329.56;4988889;28;20411;-88
2021/11/24 06:30:10;;;;;;;4.60;2.92;;;;;;;6.44;100.00;102320.47;4990889;28;20034;-89
2021/11/24 06:32:36;;;;;;;7.32;4.03;;;;;;;6.22;100.00;102330.19;4991225;28;20042;-88
2021/11/24 06:35:05;;;;;;;9.70;4.43;;;;;;;6.12;100.00;102325.13;4989145;28;20484;-88
2021/11/24 06:37:30;;;;;;;10.40;4.60;;;;;;;6.11;100.00;102322.66;4988303;28;20026;-88
2021/11/24 06:39:56;;;;;;;9.30;4.82;;;;;;;6.08;100.00;102326.47;4989955;28;20451;-88
2021/11/24 06:42:21;;;;;;;10.60;4.32;;;;;;;6.17;100.00;102327.25;4989336;28;20033;-88
2021/11/24 06:44:47;;;;;;;8.95;4.78;;;;;;;6.05;100.00;102329.50;4988522;28;20027;-88
2021/11/24 06:47:14;;;;;;;10.15;4.95;;;;;;;6.09;100.00;102328.13;4990440;28;20222;-88
2021/11/24 06:49:40;;;;;;;8.43;4.53;;;;;;;6.05;100.00;102330.31;4989896;28;20096;-88
2021/11/24 06:52:06;;;;;;;7.47;4.00;;;;;;;6.06;100.00;102329.31;4989202;28;20046;-88
2021/11/24 06:54:32;;;;;;;6.65;3.97;;;;;;;6.18;100.00;102339.53;4987785;28;20460;-88
2021/11/24 06:57:01;;;;;;;11.70;4.43;;;;;;;6.22;100.00;102339.00;4988497;28;20027;-89
2021/11/24 06:59:26;;;;;;;10.32;4.43;;;;;;;6.19;100.00;102341.19;4990293;28;20034;-88
2021/11/24 07:01:52;;;;;;;8.95;4.72;;;;;;;6.09;100.00;102345.91;4988822;28;20037;-88
2021/11/24 07:04:20;;;;;;;9.32;4.53;;;;;;;6.20;100.00;102348.16;4989630;28;20026;-88
2021/11/24 07:06:45;;;;;;;8.90;4.60;;;;;;;6.22;100.00;102341.66;4987838;28;20436;-88
2021/11/24 07:09:12;;;;;;;7.25;4.47;;;;;;;6.29;100.00;102347.09;4987514;28;20022;-88
2021/11/24 07:11:41;;;;;;;6.95;4.32;;;;;;;6.31;100.00;102351.22;4989863;28;20572;-88
2021/11/24 07:14:08;;;;;;;8.68;4.13;;;;;;;6.38;100.00;102342.50;4988890;28;20018;-88
2021/11/24 07:16:38;;;;;;;11.82;4.35;;;;;;;6.35;100.00;102352.53;4988191;28;20049;-88
2021/11/24 07:19:03;;;;;;;8.68;4.13;;;;;;;6.33;100.00;102354.53;4989238;28;21828;-88
2021/11/24 07:21:29;;;;;;;6.18;3.83;;;;;;;6.39;100.00;102363.63;4987321;28;20034;-88
2021/11/24 07:23:55;;;;;;;6.95;3.80;;;;;;;6.45;100.00;102362.91;4987201;28;20066;-89
2021/11/24 07:26:20;;;;;;;9.63;4.07;;;;;;;6.39;100.00;102357.47;4989585;28;20022;-89
2021/11/24 07:28:46;;;;;;;4.95;3.67;;;;;;;6.48;100.00;102356.41;4986547;28;20100;-88
2021/11/24 07:31:12;;;;;;;6.88;3.70;;;;;;;6.46;100.00;102361.88;4986507;28;20046;-88
2021/11/24 07:33:38;;;;;;;5.30;3.38;;;;;;;6.47;100.00;102354.75;4989068;28;20026;-89
2021/11/24 07:36:04;;;;;;;8.35;3.88;;;;;;;6.52;100.00;102355.84;4987541;28;20038;-88
2021/11/24 07:38:30;;;;;;;5.40;3.30;;;;;;;6.43;100.00;102364.91;4989180;28;20034;-88
2021/11/24 07:40:58;;;;;;;5.95;4.07;;;;;;;6.43;100.00;102361.41;4988931;28;20030;-89
2021/11/24 07:43:23;;;;;;;8.25;4.32;;;;;;;6.57;100.00;102356.13;4988786;28;20033;-88
2021/11/24 07:45:50;;;;;;;7.35;4.50;;;;;;;6.56;100.00;102358.97;4986917;28;20476;-89
2021/11/24 07:48:24;;;;;;;7.53;3.90;;;;;;;6.47;100.00;102355.56;4989477;28;20039;-88
2021/11/24 07:50:49;;;;;;;5.78;4.13;;;;;;;6.78;100.00;102357.22;4980541;28;20041;-88
2021/11/24 07:53:15;;;;;;;5.75;3.92;;;;;;;6.72;99.61;102356.13;4988279;28;20023;-88
2021/11/24 07:55:40;;;;;;;6.65;3.60;;;;;;;6.79;99.23;102351.72;4987662;28;20117;-87
2021/11/24 07:58:06;;;;;;;7.75;3.72;;;;;;;6.85;98.81;102359.00;4986964;28;20022;-88
2021/11/24 08:00:32;;;;;;;7.68;3.80;;;;;;;6.90;98.38;102353.94;4980586;28;20416;-88
2021/11/24 08:02:57;;;;;;;5.75;3.72;;;;;;;6.84;98.00;102360.00;4986753;28;20113;-88
2021/11/24 08:05:23;;;;;;;6.82;3.53;;;;;;;6.88;98.31;102352.47;4986323;28;20022;-88
2021/11/24 08:07:49;;;;;;;7.55;4.10;;;;;;;6.91;98.93;102360.91;4986515;28;20061;-88
2021/11/24 08:10:17;;;;;;;9.32;4.50;;;;;;;6.77;99.85;102348.41;4989471;28;20531;-88
2021/11/24 08:12:42;;;;;;;10.45;4.43;;;;;;;6.82;100.00;102353.19;4996137;28;20037;-88
2021/11/24 08:15:08;;;;;;;10.00;4.53;;;;;;;6.80;100.00;102356.03;4989208;28;20030;-88
2021/11/24 08:17:36;;;;;;;8.15;4.18;;;;;;;6.72;100.00;102352.66;4984859;28;20034;-88
2021/11/24 08:20:07;;;;;;;6.82;4.13;;;;;;;6.74;100.00;102347.97;4984677;28;20472;-88
2021/11/24 08:22:32;;;;;;;10.48;4.07;;;;;;;6.78;100.00;102341.25;4981565;28;20030;-88
2021/11/24 08:24:58;;;;;;;8.68;4.30;;;;;;;6.78;100.00;102342.06;4992033;28;20117;-88
2021/11/24 08:27:24;;;;;;;9.25;4.25;;;;;;;6.83;100.00;102350.38;4986751;28;20119;-88
2021/11/24 08:29:50;;;;;;;14.07;4.75;;;;;;;6.91;100.00;102346.75;4989644;28;20038;-88
2021/11/24 08:32:15;;;;;;;6.97;4.03;;;;;;;6.92;100.00;102343.91;4986069;28;20058;-88
2021/11/24 08:34:41;;;;;;;5.85;3.35;;;;;;;7.04;100.00;102340.78;4989544;28;20023;-88
2021/11/24 08:37:06;;;;;;;6.45;3.00;;;;;;;7.07;100.00;102341.25;4987377;28;20117;-88
2021/11/24 08:39:32;;;;;;;7.65;3.90;;;;;;;7.22;100.00;102342.03;4989415;28;20041;-88
2021/11/24 08:41:58;;;;;;;8.57;3.60;;;;;;;7.27;100.00;102336.16;4986678;28;20038;-87
2021/11/24 08:44:24;;;;;;;5.72;3.38;;;;;;;7.40;99.06;102346.97;4981095;28;20030;-87
2021/11/24 08:46:50;;;;;;;6.82;3.22;;;;;;;7.63;98.91;102340.66;4981207;28;20045;-88
2021/11/24 08:49:16;;;;;;;5.78;3.47;;;;;;;7.67;98.09;102341.91;4987499;28;20386;-89
2021/11/24 08:51:42;;;;;;;5.40;2.55;;;;;;;7.60;96.42;102335.69;4989046;28;20104;-88
2021/11/24 08:54:10;;;;;;;3.92;2.45;;;;;;;7.71;96.19;102333.31;4982876;28;20019;-88
2021/11/24 08:56:41;;;;;;;3.58;2.30;;;;;;;7.75;95.90;102339.97;4988670;28;20034;-88
2021/11/24 08:59:08;;;;;;;4.28;1.80;;;;;;;7.65;94.71;102339.44;4989123;28;20463;-89
2021/11/24 09:01:35;;;;;;;3.85;2.38;;;;;;;7.62;95.33;102336.31;4988175;28;20485;-89
2021/11/24 09:04:02;;;;;;;4.50;2.40;;;;;;;7.59;95.16;102329.53;4984429;28;20097;-88
2021/11/24 09:06:28;;;;;;;2.97;1.98;;;;;;;7.60;94.16;102331.19;4991983;28;20046;-89
2021/11/24 09:08:54;;;;;;;3.42;2.20;;;;;;;7.63;94.66;102332.63;4988079;28;20121;-88
2021/11/24 09:11:20;;;;;;;3.92;2.13;;;;;;;7.72;94.94;102335.00;4990321;28;20195;-87
2021/11/24 09:13:46;;;;;;;4.38;2.72;;;;;;;7.68;94.06;102328.38;4988324;28;20054;-88
2021/11/24 09:16:12;;;;;;;4.18;2.70;;;;;;;7.68;94.54;102339.03;4990268;28;20553;-88
2021/11/24 09:18:38;;;;;;;3.97;2.63;;;;;;;7.67;94.09;102339.25;4992118;28;20065;-88
2021/11/24 09:21:06;;;;;;;5.43;2.72;;;;;;;7.72;93.91;102337.69;4992591;28;20520;-88
2021/11/24 09:23:32;;;;;;;3.70;2.50;;;;;;;7.87;93.83;102338.41;4991593;28;20152;-88
2021/11/24 09:26:16;;;;;;;3.95;1.80;;;;;;;7.96;93.38;102324.94;4992240;28;20392;-88
2021/11/24 09:28:43;;;;;;;2.92;2.10;;;;;;;7.80;93.14;102326.03;4988160;28;20026;-88
2021/11/24 09:31:09;;;;;;;3.55;2.33;;;;;;;7.87;92.82;102333.06;4992109;28;20169;-88
2021/11/24 09:33:37;;;;;;;3.95;2.22;;;;;;;8.01;92.78;102334.03;4991649;28;20377;-88
2021/11/24 09:36:03;;;;;;;6.40;3.55;;;;;;;7.97;92.09;102327.44;4988379;28;20029;-88
2021/11/24 09:38:31;;;;;;;3.78;3.00;;;;;;;7.95;91.95;102326.78;4992253;28;20022;-88
2021/11/24 09:41:03;;;;;;;3.95;2.45;;;;;;;7.97;91.39;102324.75;4990846;28;20027;-88
2021/11/24 09:43:33;;;;;;;3.65;2.53;;;;;;;8.02;91.37;102319.66;4991615;28;20033;-88
2021/11/24 09:46:00;;;;;;;3.45;2.10;;;;;;;8.19;90.97;102321.03;4990433;28;20026;-88
2021/11/24 09:48:26;;;;;;;3.85;1.67;;;;;;;8.32;90.07;102319.50;4989840;28;20026;-88
2021/11/24 09:50:54;;;;;;;2.92;1.85;;;;;;;8.17;88.87;102323.06;4991894;28;20025;-88
2021/11/24 09:53:24;;;;;;;2.47;1.75;;;;;;;7.93;88.27;102318.16;4990745;28;20092;-88
2021/11/24 09:55:54;;;;;;;2.67;1.50;;;;;;;7.91;88.34;102311.38;4992439;28;20115;-89
2021/11/24 09:58:20;;;;;;;2.35;1.50;;;;;;;7.97;88.62;102311.41;4990664;28;20044;-88
2021/11/24 10:00:46;;;;;;;2.65;1.88;;;;;;;7.95;89.10;102304.63;4990786;28;20030;-89
2021/11/24 10:03:15;;;;;;;3.20;1.35;;;;;;;7.86;88.02;102302.06;4992677;28;20030;-88
2021/11/24 10:05:41;;;;;;;1.35;0.80;;;;;;;7.86;90.01;102307.41;4989368;28;20121;-89
2021/11/24 10:08:08;;;;;;;4.15;1.45;;;;;;;7.68;91.02;102301.69;4988147;28;20172;-88
2021/11/24 10:10:36;;;;;;;3.50;1.55;;;;;;;7.49;92.33;102300.50;4992418;28;20028;-88
2021/11/24 10:13:02;;;;;;;4.22;1.80;;;;;;;7.70;92.54;102298.84;4992271;28;20022;-88
2021/11/24 10:15:43;;;;;;;2.47;1.80;;;;;;;7.88;92.16;102293.88;4989610;28;20026;-88
2021/11/24 10:18:18;;;;;;;3.03;2.00;;;;;;;8.04;91.18;102298.09;4992074;28;20596;-89
2021/11/24 10:20:48;;;;;;;4.43;1.58;;;;;;;8.15;90.36;102298.41;5005888;28;20524;-88
2021/11/24 10:23:25;;;;;;;2.47;1.30;;;;;;;8.13;89.30;102300.47;4990612;28;20026;-88
2021/11/24 10:25:50;;;;;;;3.55;1.55;;;;;;;7.91;90.40;102295.34;4993023;28;20026;-88
2021/11/24 10:28:30;;;;;;;2.25;1.42;;;;;;;7.94;91.01;102297.63;4992089;28;20092;-88
2021/11/24 10:30:56;;;;;;;3.25;1.70;;;;;;;7.95;91.81;102286.75;4989039;28;20031;-87
2021/11/24 10:33:29;;;;;;;1.73;1.38;;;;;;;7.86;92.75;102296.72;4989250;28;20439;-88
2021/11/24 10:36:12;;;;;;;1.73;1.55;;;;;;;7.98;92.76;102285.53;4992241;28;20030;-88
2021/11/24 10:38:41;;;;;;;2.03;1.30;;;;;;;7.93;92.31;102283.47;4986199;28;20022;-88
2021/11/24 10:41:10;;;;;;;2.17;1.20;;;;;;;7.86;92.08;102291.41;4992293;28;20034;-89
2021/11/24 10:43:42;;;;;;;1.83;1.30;;;;;;;7.70;91.49;102277.50;4992318;28;20095;-88
2021/11/24 10:46:10;;;;;;;1.50;1.20;;;;;;;7.71;90.56;102276.47;4991879;28;20120;-88
2021/11/24 10:48:36;;;;;;;1.20;1.10;;;;;;;7.71;90.94;102271.97;4992925;28;20022;-87
2021/11/24 10:51:28;;;;;;;1.83;1.20;;;;;;;7.54;93.62;102273.25;4993762;28;20053;-88
2021/11/24 10:54:15;;;;;;;4.10;1.45;;;;;;;7.52;94.92;102270.75;4992774;28;20592;-89
2021/11/24 10:57:00;;;;;;;3.05;1.48;;;;;;;7.43;96.43;102269.25;4986031;28;20031;-89
2021/11/24 10:59:31;;;;;;;1.67;1.40;;;;;;;7.42;96.01;102275.59;4991217;28;20022;-88
2021/11/24 11:02:24;;;;;;;3.72;1.42;;;;;;;7.36;96.65;102272.84;4988740;28;20030;-88
2021/11/24 11:05:05;;;;;;;2.28;1.13;;;;;;;7.31;97.32;102267.28;4985636;28;20038;-89
2021/11/24 11:11:10;;;;;;;1.95;1.58;;;;;;;7.28;97.70;102261.31;4978072;28;20688;-89
2021/11/24 11:13:36;;;;;;;4.38;1.60;;;;;;;7.21;97.62;102256.94;4987329;28;20033;-89
2021/11/24 11:16:05;;;;;;;3.22;1.73;;;;;;;7.13;100.00;102257.03;4990787;28;20378;-89
2021/11/24 11:18:35;;;;;;;4.13;2.42;;;;;;;7.24;100.00;102240.56;4990966;28;20030;-90
2021/11/24 11:21:07;;;;;;;4.88;1.73;;;;;;;7.16;99.92;102246.00;4984881;28;20027;-89
2021/11/24 11:23:43;;;;;;;3.85;1.85;;;;;;;7.25;100.00;102237.69;4988315;28;20014;-89
2021/11/24 11:26:20;;;;;;;2.63;2.00;;;;;;;7.25;100.00;102235.03;4990183;28;20030;-89
2021/11/24 11:28:55;;;;;;;3.50;2.17;;;;;;;7.31;99.77;102230.78;4990405;28;20034;-89
2021/11/24 11:31:29;;;;;;;2.40;1.60;;;;;;;7.44;99.16;102224.75;5004001;28;20079;-90
2021/11/24 11:33:59;;;;;;;2.95;1.80;;;;;;;7.39;97.23;102229.84;4991926;28;20030;-90
2021/11/24 11:36:25;;;;;;;3.08;1.88;;;;;;;7.44;97.53;102219.41;4992013;28;20045;-90
2021/11/24 11:38:54;;;;;;;2.40;1.70;;;;;;;7.62;97.82;102219.78;4992103;28;20655;-90
2021/11/24 11:41:36;;;;;;;3.80;1.90;;;;;;;7.50;97.50;102224.78;4991590;28;20084;-90